createdAt,value
2023-04-24T00:00:34.394Z,97608.94
2023-04-24T00:03:02.156Z,97603.50
2023-04-24T00:05:29.777Z,97602.34
2023-04-24T00:07:57.299Z,97601.16
2023-04-24T00:10:24.774Z,97603.81
2023-04-24T00:12:52.331Z,97612.72
2023-04-24T00:15:19.925Z,97613.81
2023-04-24T00:17:47.559Z,97630.75
2023-04-24T00:20:16.096Z,97619.50
2023-04-24T00:22:43.556Z,97597.34
2023-04-24T00:25:11.240Z,97616.75
2023-04-24T00:27:40.041Z,97625.19
2023-04-24T00:30:08.442Z,97634.09
2023-04-24T00:32:36.080Z,97628.31
2023-04-24T00:35:03.929Z,97627.94
2023-04-24T00:37:31.536Z,97629.81
2023-04-24T00:39:59.263Z,97639.88
2023-04-24T00:42:27.104Z,97638.69
2023-04-24T00:44:54.868Z,97651.88
2023-04-24T00:47:23.226Z,97653.81
2023-04-24T00:49:50.759Z,97656.91
2023-04-24T00:52:18.981Z,97663.13
2023-04-24T00:54:46.751Z,97652.31
2023-04-24T00:57:16.686Z,97664.38
2023-04-24T00:59:45.504Z,97657.41
2023-04-24T01:02:14.232Z,97669.38
2023-04-24T01:04:42.151Z,97664.38
2023-04-24T01:07:12.026Z,97665.97
2023-04-24T01:09:43.446Z,97671.00
2023-04-24T01:12:11.325Z,97684.97
2023-04-24T01:14:39.617Z,97691.91
2023-04-24T01:17:07.146Z,97684.19
2023-04-24T01:19:34.704Z,97680.72
2023-04-24T01:22:04.952Z,97684.28
2023-04-24T01:24:32.487Z,97677.31
2023-04-24T01:27:00.247Z,97670.00
2023-04-24T01:29:28.104Z,97671.16
2023-04-24T01:31:57.160Z,97686.34
2023-04-24T01:34:24.938Z,97696.84
2023-04-24T01:36:52.470Z,97711.97
2023-04-24T01:39:21.896Z,97709.69
2023-04-24T01:41:51.000Z,97722.09
2023-04-24T01:44:20.509Z,97724.03
2023-04-24T01:46:49.146Z,97737.22
2023-04-24T01:49:16.912Z,97740.38
2023-04-24T01:51:46.381Z,97738.84
2023-04-24T01:54:14.335Z,97751.34
2023-04-24T01:56:45.604Z,97761.50
2023-04-24T01:59:13.566Z,97766.53
2023-04-24T02:01:41.320Z,97760.41
2023-04-24T02:04:09.436Z,97770.13
2023-04-24T02:06:37.114Z,97755.88
2023-04-24T02:09:04.708Z,97747.81
2023-04-24T02:11:32.224Z,97754.81
2023-04-24T02:13:59.809Z,97742.47
2023-04-24T02:16:27.483Z,97751.44
2023-04-24T02:18:55.002Z,97751.09
2023-04-24T02:21:22.513Z,97765.84
2023-04-24T02:23:50.027Z,97761.25
2023-04-24T02:26:17.839Z,97766.72
2023-04-24T02:28:45.300Z,97760.19
2023-04-24T02:31:12.884Z,97763.28
2023-04-24T02:33:41.980Z,97784.25
2023-04-24T02:36:09.551Z,97788.16
2023-04-24T02:38:37.154Z,97797.47
2023-04-24T02:41:07.623Z,97799.06
2023-04-24T02:43:35.203Z,97815.75
2023-04-24T02:46:03.190Z,97820.03
2023-04-24T02:48:30.933Z,97822.34
2023-04-24T02:50:58.898Z,97830.47
2023-04-24T02:53:26.589Z,97830.75
2023-04-24T02:55:54.114Z,97820.53
2023-04-24T02:58:21.998Z,97821.94
2023-04-24T03:00:49.818Z,97828.69
2023-04-24T03:03:17.429Z,97828.06
2023-04-24T03:05:45.098Z,97825.88
2023-04-24T03:08:12.590Z,97827.16
2023-04-24T03:10:40.085Z,97835.38
2023-04-24T03:13:09.143Z,97842.69
2023-04-24T03:15:36.617Z,97850.84
2023-04-24T03:18:04.297Z,97846.81
2023-04-24T03:20:32.040Z,97840.16
2023-04-24T03:23:00.073Z,97835.78
2023-04-24T03:25:28.074Z,97839.41
2023-04-24T03:27:56.108Z,97836.03
2023-04-24T03:30:45.327Z,97832.81
2023-04-24T03:33:14.385Z,97840.59
2023-04-24T03:35:50.588Z,97849.03
2023-04-24T03:38:18.168Z,97847.53
2023-04-24T03:40:54.907Z,97863.81
2023-04-24T03:43:42.534Z,97877.00
2023-04-24T03:46:11.567Z,97877.34
2023-04-24T03:48:43.557Z,97884.72
2023-04-24T03:51:12.191Z,97876.91
2023-04-24T03:53:43.297Z,97868.16
2023-04-24T03:56:13.091Z,97882.13
2023-04-24T03:58:42.185Z,97890.88
2023-04-24T04:01:11.766Z,97898.25
2023-04-24T04:03:48.240Z,97902.88
2023-04-24T04:06:20.715Z,97910.00
2023-04-24T04:08:48.284Z,97897.50
2023-04-24T04:11:15.901Z,97912.75
2023-04-24T04:13:43.408Z,97911.19
2023-04-24T04:16:11.073Z,97918.06
2023-04-24T04:18:39.037Z,97925.31
2023-04-24T04:21:08.159Z,97926.34
2023-04-24T04:23:36.166Z,97926.78
2023-04-24T04:26:10.017Z,97926.19
2023-04-24T04:28:55.940Z,97929.06
2023-04-24T04:31:24.686Z,97943.22
2023-04-24T04:33:53.378Z,97928.38
2023-04-24T04:36:20.867Z,97939.09
2023-04-24T04:38:53.011Z,97939.59
2023-04-24T04:41:41.748Z,97937.75
2023-04-24T04:44:11.119Z,97943.72
2023-04-24T04:46:39.794Z,97952.44
2023-04-24T04:49:29.757Z,97949.59
2023-04-24T04:51:57.873Z,97954.84
2023-04-24T04:54:27.164Z,97945.94
2023-04-24T04:56:56.091Z,97948.41
2023-04-24T04:59:23.577Z,97944.19
2023-04-24T05:01:57.477Z,97938.44
2023-04-24T05:04:25.381Z,97941.28
2023-04-24T05:06:53.509Z,97946.44
2023-04-24T05:09:22.987Z,97948.53
2023-04-24T05:11:57.407Z,97950.41
2023-04-24T05:14:26.729Z,97946.16
2023-04-24T05:16:54.310Z,97947.41
2023-04-24T05:19:24.284Z,97947.06
2023-04-24T05:21:52.201Z,97949.09
2023-04-24T05:24:19.711Z,97950.78
2023-04-24T05:26:56.864Z,97955.25
2023-04-24T05:29:32.272Z,97959.41
2023-04-24T05:31:59.983Z,97950.19
2023-04-24T05:34:30.446Z,97949.31
2023-04-24T05:36:58.732Z,97951.88
2023-04-24T05:39:26.916Z,97946.94
2023-04-24T05:41:56.469Z,97953.19
2023-04-24T05:44:24.028Z,97952.28
2023-04-24T05:46:52.044Z,97947.53
2023-04-24T05:49:19.632Z,97950.41
2023-04-24T05:51:47.792Z,97939.22
2023-04-24T05:54:16.651Z,97943.06
2023-04-24T05:56:44.243Z,97935.81
2023-04-24T05:59:15.561Z,97944.28
2023-04-24T06:01:43.283Z,97961.84
2023-04-24T06:04:16.368Z,97958.97
2023-04-24T06:06:44.138Z,97958.09
2023-04-24T06:09:11.732Z,97965.47
2023-04-24T06:11:40.269Z,97953.44
2023-04-24T06:14:11.051Z,97962.69
2023-04-24T06:16:40.260Z,97960.00
2023-04-24T06:19:28.000Z,97978.50
2023-04-24T06:21:55.822Z,97976.09
2023-04-24T06:24:23.364Z,97982.00
2023-04-24T06:26:52.899Z,97984.91
2023-04-24T06:29:20.486Z,97985.25
2023-04-24T06:31:47.982Z,97985.38
2023-04-24T06:34:15.529Z,97975.53
2023-04-24T06:36:43.304Z,97980.38
2023-04-24T06:39:10.868Z,97983.50
2023-04-24T06:41:38.355Z,97987.16
2023-04-24T06:44:05.776Z,97990.50
2023-04-24T06:46:33.365Z,97984.53
2023-04-24T06:49:01.915Z,97998.63
2023-04-24T06:51:29.368Z,98001.09
2023-04-24T06:53:59.558Z,98003.13
2023-04-24T06:56:27.328Z,98000.25
2023-04-24T06:58:54.869Z,98002.47
2023-04-24T07:01:22.443Z,98002.97
2023-04-24T07:03:50.162Z,98006.50
2023-04-24T07:06:19.811Z,98003.16
2023-04-24T07:08:47.853Z,98005.44
2023-04-24T07:11:15.374Z,98005.25
2023-04-24T07:13:45.916Z,98004.53
2023-04-24T07:16:13.422Z,98009.13
2023-04-24T07:18:41.099Z,98008.72
2023-04-24T07:21:11.052Z,98006.25
2023-04-24T07:23:42.785Z,98006.09
2023-04-24T07:26:13.659Z,97989.63
2023-04-24T07:28:46.826Z,98015.97
2023-04-24T07:31:14.458Z,98010.53
2023-04-24T07:33:41.916Z,98019.31
2023-04-24T07:36:09.484Z,98023.97
2023-04-24T07:38:36.951Z,98012.31
2023-04-24T07:41:04.414Z,98012.34
2023-04-24T07:43:31.972Z,98009.38
2023-04-24T07:45:59.486Z,98009.56
2023-04-24T07:48:27.753Z,98015.97
2023-04-24T07:50:55.741Z,98016.13
2023-04-24T07:53:23.334Z,98022.09
2023-04-24T07:55:50.918Z,98016.69
2023-04-24T07:58:18.579Z,98012.38
2023-04-24T08:00:46.028Z,98009.28
2023-04-24T08:03:14.054Z,98009.56
2023-04-24T08:05:44.214Z,98014.50
2023-04-24T08:08:11.796Z,98007.72
2023-04-24T08:10:39.236Z,98021.63
2023-04-24T08:13:06.711Z,98013.19
2023-04-24T08:15:34.310Z,98020.38
2023-04-24T08:18:02.162Z,98026.25
2023-04-24T08:20:29.960Z,98013.66
2023-04-24T08:22:57.896Z,98019.03
2023-04-24T08:25:26.006Z,98019.63
2023-04-24T08:27:53.509Z,98022.09
2023-04-24T08:30:21.579Z,98015.94
2023-04-24T08:32:49.294Z,98028.19
2023-04-24T08:35:16.966Z,98026.13
2023-04-24T08:37:44.610Z,98039.19
2023-04-24T08:40:16.847Z,98040.63
2023-04-24T08:42:45.705Z,98050.81
2023-04-24T08:45:14.874Z,98058.53
2023-04-24T08:47:43.730Z,98061.22
2023-04-24T08:50:12.454Z,98067.38
2023-04-24T08:52:39.909Z,98066.69
2023-04-24T08:55:07.873Z,98067.44
2023-04-24T08:57:37.180Z,98063.31
2023-04-24T09:00:06.032Z,98063.06
2023-04-24T09:02:36.526Z,98078.53
2023-04-24T09:05:04.980Z,98090.22
2023-04-24T09:07:35.752Z,98082.16
2023-04-24T09:10:04.185Z,98093.78
2023-04-24T09:12:31.753Z,98090.69
2023-04-24T09:15:00.591Z,98082.06
2023-04-24T09:17:29.687Z,98085.84
2023-04-24T09:19:57.188Z,98081.91
2023-04-24T09:22:25.250Z,98087.69
2023-04-24T09:25:04.915Z,98092.66
2023-04-24T09:27:32.806Z,98076.69
2023-04-24T09:30:01.823Z,98079.78
2023-04-24T09:32:33.021Z,98070.59
2023-04-24T09:35:14.858Z,98075.44
2023-04-24T09:37:45.147Z,98071.97
2023-04-24T09:40:23.638Z,98068.16
2023-04-24T09:42:56.746Z,98080.38
2023-04-24T09:45:30.043Z,98074.19
2023-04-24T09:47:57.832Z,98071.34
2023-04-24T09:50:25.350Z,98066.44
2023-04-24T09:53:24.913Z,98067.44
2023-04-24T09:55:54.334Z,98069.31
2023-04-24T09:58:28.135Z,98076.16
2023-04-24T10:00:57.601Z,98084.28
2023-04-24T10:03:31.265Z,98073.53
2023-04-24T10:06:03.197Z,98076.97
2023-04-24T10:08:38.783Z,98072.75
2023-04-24T10:11:07.362Z,98074.19
2023-04-24T10:13:36.807Z,98086.00
2023-04-24T10:16:05.612Z,98093.09
2023-04-24T10:18:34.105Z,98099.47
2023-04-24T10:21:02.569Z,98099.91
2023-04-24T10:23:31.585Z,98096.06
2023-04-24T10:26:00.562Z,98091.41
2023-04-24T10:28:30.813Z,98086.75
2023-04-24T10:30:59.710Z,98082.97
2023-04-24T10:33:28.115Z,98078.66
2023-04-24T10:35:56.829Z,98084.13
2023-04-24T10:38:28.083Z,98082.16
2023-04-24T10:41:24.495Z,98093.97
2023-04-24T10:44:08.257Z,98090.16
2023-04-24T10:46:36.253Z,98082.03
2023-04-24T10:49:10.059Z,98084.19
2023-04-24T10:52:02.566Z,98080.88
2023-04-24T10:54:30.064Z,98082.03
2023-04-24T10:57:23.086Z,98082.53
2023-04-24T11:00:11.245Z,98076.47
2023-04-24T11:02:40.391Z,98075.84
2023-04-24T11:05:08.939Z,98082.50
2023-04-24T11:08:13.596Z,98068.97
2023-04-24T11:10:48.938Z,98066.03
2023-04-24T11:13:23.131Z,98066.19
2023-04-24T11:16:24.352Z,98068.66
2023-04-24T11:18:55.633Z,98066.16
2023-04-24T11:21:23.914Z,98066.59
2023-04-24T11:23:52.176Z,98061.56
2023-04-24T11:26:22.554Z,98066.19
2023-04-24T11:28:51.468Z,98059.19
2023-04-24T11:31:49.980Z,98064.38
2023-04-24T11:34:18.931Z,98055.63
2023-04-24T11:36:49.552Z,98054.81
2023-04-24T11:39:17.174Z,98056.16
2023-04-24T11:41:44.713Z,98053.34
2023-04-24T11:44:13.384Z,98050.63
2023-04-24T11:46:41.585Z,98053.75
2023-04-24T11:49:09.714Z,98050.63
2023-04-24T11:51:51.002Z,98043.59
2023-04-24T11:54:20.140Z,98055.19
2023-04-24T11:56:51.163Z,98053.88
2023-04-24T11:59:18.729Z,98042.31
2023-04-24T12:01:47.144Z,98045.84
2023-04-24T12:04:15.671Z,98037.25
2023-04-24T12:07:06.330Z,98028.34
2023-04-24T12:09:48.130Z,98016.69
2023-04-24T12:12:18.273Z,98029.22
2023-04-24T12:14:48.990Z,98026.19
2023-04-24T12:17:17.657Z,98016.00
2023-04-24T12:19:49.527Z,98024.09
2023-04-24T12:22:17.044Z,98011.75
2023-04-24T12:25:04.864Z,98013.44
2023-04-24T12:27:34.256Z,98014.06
2023-04-24T12:30:05.055Z,98009.78
2023-04-24T12:32:33.280Z,98008.94
2023-04-24T12:35:01.488Z,98005.38
2023-04-24T12:37:34.840Z,98005.56
2023-04-24T12:40:12.909Z,98007.09
2023-04-24T12:42:45.721Z,98007.38
2023-04-24T12:45:14.177Z,98003.22
2023-04-24T12:47:42.890Z,98004.81
2023-04-24T12:50:15.121Z,98010.28
2023-04-24T12:52:43.933Z,98005.25
2023-04-24T12:55:13.271Z,97996.75
2023-04-24T12:57:41.273Z,98003.78
2023-04-24T13:00:10.427Z,98003.06
2023-04-24T13:02:38.343Z,97997.28
2023-04-24T13:05:06.400Z,98003.19
2023-04-24T13:07:35.348Z,98000.47
2023-04-24T13:10:03.176Z,97997.81
2023-04-24T13:12:31.351Z,97996.66
2023-04-24T13:14:59.235Z,98000.94
2023-04-24T13:17:26.770Z,97989.28
2023-04-24T13:19:56.318Z,98000.53
2023-04-24T13:22:23.962Z,97997.53
2023-04-24T13:24:51.518Z,97994.03
2023-04-24T13:27:19.774Z,97997.53
2023-04-24T13:29:47.629Z,97993.25
2023-04-24T13:32:15.201Z,97997.59
2023-04-24T13:34:42.792Z,97998.78
2023-04-24T13:37:10.362Z,97996.03
2023-04-24T13:39:37.948Z,97990.56
2023-04-24T13:42:05.453Z,97990.16
2023-04-24T13:44:33.015Z,97995.69
2023-04-24T13:47:01.010Z,98003.16
2023-04-24T13:49:29.013Z,97999.19
2023-04-24T13:51:57.594Z,98005.84
2023-04-24T13:54:27.320Z,98009.34
2023-04-24T13:56:55.058Z,97992.63
2023-04-24T13:59:22.951Z,98001.63
2023-04-24T14:01:50.814Z,98005.63
2023-04-24T14:04:18.642Z,98000.16
2023-04-24T14:06:46.436Z,98008.75
2023-04-24T14:09:14.305Z,98003.72
2023-04-24T14:11:42.131Z,97997.88
2023-04-24T14:14:09.723Z,98010.75
2023-04-24T14:16:37.454Z,98011.94
2023-04-24T14:19:06.653Z,98009.25
2023-04-24T14:21:34.526Z,98020.63
2023-04-24T14:24:02.122Z,98009.75
2023-04-24T14:26:29.929Z,98011.34
2023-04-24T14:29:11.630Z,98020.06
2023-04-24T14:31:42.907Z,98027.59
2023-04-24T14:34:11.026Z,98024.94
2023-04-24T14:36:39.010Z,98024.22
2023-04-24T14:39:08.410Z,98019.59
2023-04-24T14:41:37.233Z,98014.59
2023-04-24T14:44:06.179Z,98026.34
2023-04-24T14:46:34.115Z,98014.72
2023-04-24T14:49:01.840Z,98012.03
2023-04-24T14:51:29.338Z,98012.03
2023-04-24T14:53:58.210Z,98014.31
2023-04-24T14:56:25.788Z,98014.09
2023-04-24T14:58:53.973Z,98010.56
2023-04-24T15:01:21.762Z,98017.22
2023-04-24T15:03:49.619Z,98018.34
2023-04-24T15:06:17.676Z,98012.63
2023-04-24T15:08:48.048Z,98019.34
2023-04-24T15:11:16.956Z,98012.84
2023-04-24T15:13:46.862Z,98016.88
2023-04-24T15:16:14.865Z,98025.84
2023-04-24T15:18:42.793Z,98019.28
2023-04-24T15:21:10.265Z,98025.91
2023-04-24T15:23:38.320Z,98026.34
2023-04-24T15:26:06.040Z,98020.16
2023-04-24T15:28:33.701Z,98015.19
2023-04-24T15:31:01.215Z,98029.22
2023-04-24T15:33:28.774Z,98023.81
2023-04-24T15:35:56.292Z,98032.38
2023-04-24T15:38:23.817Z,98033.16
2023-04-24T15:40:51.295Z,98033.53
2023-04-24T15:43:18.788Z,98040.91
2023-04-24T15:45:46.369Z,98040.91
2023-04-24T15:48:13.899Z,98047.16
2023-04-24T15:50:41.457Z,98049.47
2023-04-24T15:53:09.083Z,98044.44
2023-04-24T15:55:37.684Z,98050.63
2023-04-24T15:58:05.351Z,98050.63
2023-04-24T16:00:34.685Z,98053.34
2023-04-24T16:03:03.002Z,98060.78
2023-04-24T16:05:31.417Z,98061.53
2023-04-24T16:07:58.857Z,98053.38
2023-04-24T16:10:27.307Z,98072.81
2023-04-24T16:12:55.030Z,98075.94
2023-04-24T16:15:22.961Z,98078.25
2023-04-24T16:17:51.337Z,98072.06
2023-04-24T16:20:19.214Z,98076.31
2023-04-24T16:22:49.198Z,98081.41
2023-04-24T16:25:19.339Z,98082.94
2023-04-24T16:27:48.972Z,98070.50
2023-04-24T16:30:16.956Z,98083.72
2023-04-24T16:32:44.512Z,98082.13
2023-04-24T16:35:12.014Z,98082.91
2023-04-24T16:37:39.639Z,98088.75
2023-04-24T16:40:11.193Z,98097.66
2023-04-24T16:42:39.462Z,98096.50
2023-04-24T16:45:07.946Z,98092.97
2023-04-24T16:47:36.731Z,98078.22
2023-04-24T16:50:04.872Z,98101.94
2023-04-24T16:52:32.746Z,98096.47
2023-04-24T16:55:00.355Z,98094.53
2023-04-24T16:57:27.985Z,98098.03
2023-04-24T16:59:55.693Z,98096.47
2023-04-24T17:02:23.266Z,98101.94
2023-04-24T17:04:51.145Z,98087.56
2023-04-24T17:07:18.680Z,98099.22
2023-04-24T17:09:46.448Z,98094.56
2023-04-24T17:12:14.112Z,98100.03
2023-04-24T17:14:41.978Z,98098.84
2023-04-24T17:17:10.623Z,98104.66
2023-04-24T17:19:38.148Z,98093.03
2023-04-24T17:22:05.996Z,98092.66
2023-04-24T17:24:34.150Z,98087.97
2023-04-24T17:27:08.417Z,98091.47
2023-04-24T17:29:42.337Z,98088.00
2023-04-24T17:32:10.133Z,98091.47
2023-04-24T17:34:37.719Z,98099.25
2023-04-24T17:37:05.498Z,98108.97
2023-04-24T17:39:33.089Z,98102.72
2023-04-24T17:42:03.610Z,98103.13
2023-04-24T17:44:31.128Z,98103.16
2023-04-24T17:46:58.584Z,98106.25
2023-04-24T17:49:40.015Z,98115.56
2023-04-24T17:52:07.637Z,98106.25
2023-04-24T17:54:35.397Z,98106.28
2023-04-24T17:57:03.355Z,98105.47
2023-04-24T17:59:31.093Z,98108.19
2023-04-24T18:02:01.083Z,98114.03
2023-04-24T18:04:28.958Z,98105.88
2023-04-24T18:06:56.662Z,98099.25
2023-04-24T18:09:24.182Z,98105.84
2023-04-24T18:11:51.734Z,98104.25
2023-04-24T18:14:19.381Z,98102.66
2023-04-24T18:16:46.967Z,98105.69
2023-04-24T18:19:14.529Z,98103.38
2023-04-24T18:21:41.965Z,98105.31
2023-04-24T18:24:09.862Z,98114.97
2023-04-24T18:26:37.366Z,98113.34
2023-04-24T18:29:04.916Z,98104.44
2023-04-24T18:31:32.826Z,98096.63
2023-04-24T18:34:00.283Z,98098.91
2023-04-24T18:36:27.990Z,98104.28
2023-04-24T18:38:55.518Z,98100.38
2023-04-24T18:41:23.063Z,98110.81
2023-04-24T18:43:52.189Z,98103.84
2023-04-24T18:46:19.788Z,98102.72
2023-04-24T18:48:47.637Z,98099.31
2023-04-24T18:51:15.315Z,98106.72
2023-04-24T18:53:42.921Z,98107.84
2023-04-24T18:56:10.428Z,98112.09
2023-04-24T18:58:37.924Z,98106.59
2023-04-24T19:01:07.543Z,98108.81
2023-04-24T19:03:36.225Z,98111.00
2023-04-24T19:06:03.863Z,98104.75
2023-04-24T19:08:31.392Z,98109.84
2023-04-24T19:10:59.858Z,98112.88
2023-04-24T19:13:27.373Z,98109.75
2023-04-24T19:15:54.882Z,98113.69
2023-04-24T19:18:22.457Z,98119.59
2023-04-24T19:20:50.037Z,98116.16
2023-04-24T19:23:17.636Z,98113.47
2023-04-24T19:25:45.242Z,98109.16
2023-04-24T19:28:12.724Z,98116.94
2023-04-24T19:30:40.994Z,98117.31
2023-04-24T19:33:08.566Z,98103.75
2023-04-24T19:35:36.333Z,98112.22
2023-04-24T19:38:03.847Z,98124.69
2023-04-24T19:40:31.857Z,98096.78
2023-04-24T19:42:59.300Z,98110.84
2023-04-24T19:45:26.830Z,98111.66
2023-04-24T19:47:54.863Z,98123.38
2023-04-24T19:50:22.574Z,98119.94
2023-04-24T19:52:50.082Z,98119.97
2023-04-24T19:55:17.833Z,98112.19
2023-04-24T19:57:45.739Z,98118.41
2023-04-24T20:00:13.934Z,98114.13
2023-04-24T20:02:41.850Z,98114.13
2023-04-24T20:05:10.087Z,98121.47
2023-04-24T20:07:37.692Z,98116.00
2023-04-24T20:10:05.690Z,98120.72
2023-04-24T20:12:33.381Z,98123.06
2023-04-24T20:15:01.159Z,98116.19
2023-04-24T20:17:28.722Z,98123.97
2023-04-24T20:19:56.232Z,98122.84
2023-04-24T20:22:23.958Z,98120.53
2023-04-24T20:24:51.990Z,98120.91
2023-04-24T20:27:19.701Z,98124.41
2023-04-24T20:29:47.219Z,98126.72
2023-04-24T20:32:14.793Z,98132.13
2023-04-24T20:34:42.682Z,98132.47
2023-04-24T20:37:10.213Z,98134.78
2023-04-24T20:39:39.206Z,98135.09
2023-04-24T20:42:07.901Z,98127.59
2023-04-24T20:44:35.307Z,98136.00
2023-04-24T20:47:03.129Z,98123.63
2023-04-24T20:49:30.679Z,98121.63
2023-04-24T20:51:59.521Z,98117.41
2023-04-24T20:54:26.956Z,98122.78
2023-04-24T20:56:54.461Z,98129.25
2023-04-24T20:59:21.881Z,98123.75
2023-04-24T21:01:51.050Z,98121.38
2023-04-24T21:04:18.706Z,98119.75
2023-04-24T21:06:46.335Z,98132.91
2023-04-24T21:09:13.841Z,98131.81
2023-04-24T21:11:41.601Z,98124.47
2023-04-24T21:14:09.480Z,98123.38
2023-04-24T21:16:37.559Z,98121.84
2023-04-24T21:19:05.553Z,98121.41
2023-04-24T21:21:34.332Z,98117.56
2023-04-24T21:24:04.717Z,98132.75
2023-04-24T21:26:32.410Z,98121.69
2023-04-24T21:28:59.930Z,98125.53
2023-04-24T21:31:27.509Z,98127.59
2023-04-24T21:33:55.003Z,98123.44
2023-04-24T21:36:22.485Z,98126.13
2023-04-24T21:38:50.095Z,98128.44
2023-04-24T21:41:17.631Z,98119.56
2023-04-24T21:43:46.285Z,98129.56
2023-04-24T21:46:15.378Z,98125.00
2023-04-24T21:48:42.881Z,98123.84
2023-04-24T21:51:10.812Z,98132.44
2023-04-24T21:53:38.328Z,98122.81
2023-04-24T21:56:06.529Z,98129.56
2023-04-24T21:58:35.210Z,98132.34
2023-04-24T22:01:02.765Z,98133.94
2023-04-24T22:03:30.967Z,98126.94
2023-04-24T22:05:58.565Z,98142.09
2023-04-24T22:08:26.380Z,98133.56
2023-04-24T22:10:54.959Z,98127.34
2023-04-24T22:13:22.538Z,98139.38
2023-04-24T22:15:53.779Z,98138.22
2023-04-24T22:18:24.600Z,98135.47
2023-04-24T22:20:55.736Z,98131.94
2023-04-24T22:23:23.242Z,98129.63
2023-04-24T22:25:50.895Z,98137.75
2023-04-24T22:28:18.285Z,98130.72
2023-04-24T22:30:45.934Z,98136.97
2023-04-24T22:33:13.424Z,98137.34
2023-04-24T22:35:41.006Z,98138.09
2023-04-24T22:38:08.570Z,98136.13
2023-04-24T22:40:36.156Z,98136.91
2023-04-24T22:43:04.040Z,98135.75
2023-04-24T22:45:31.489Z,98132.22
2023-04-24T22:47:59.062Z,98140.78
2023-04-24T22:50:26.729Z,98139.22
2023-04-24T22:52:54.309Z,98144.69
2023-04-24T22:55:22.061Z,98148.16
2023-04-24T22:57:50.287Z,98147.78
2023-04-24T23:00:17.950Z,98140.06
2023-04-24T23:02:45.585Z,98150.13
2023-04-24T23:05:13.159Z,98149.00
2023-04-24T23:07:41.144Z,98145.50
2023-04-24T23:10:09.111Z,98153.25
2023-04-24T23:12:36.602Z,98145.88
2023-04-24T23:15:04.841Z,98152.47
2023-04-24T23:17:32.621Z,98139.25
2023-04-24T23:20:01.172Z,98145.84
2023-04-24T23:22:29.023Z,98147.00
2023-04-24T23:24:56.472Z,98146.59
2023-04-24T23:27:23.954Z,98143.88
2023-04-24T23:29:52.217Z,98144.28
2023-04-24T23:32:19.693Z,98147.75
2023-04-24T23:34:47.144Z,98147.38
2023-04-24T23:37:15.215Z,98143.09
2023-04-24T23:39:43.994Z,98150.44
2023-04-24T23:42:11.472Z,98153.94
2023-04-24T23:44:38.959Z,98159.34
2023-04-24T23:47:06.553Z,98150.00
2023-04-24T23:49:34.241Z,98144.97
2023-04-24T23:52:01.802Z,98151.56
2023-04-24T23:54:31.123Z,98151.19
2023-04-24T23:56:58.886Z,98152.31
2023-04-24T23:59:29.411Z,98153.88
